Time;durP1;ratioP1;P1;durP2;ratioP2;P2;SDS_P1;SDS_P2;PMS_P1;PMS_P2;Temp;Humidity;BMP_temperature;BMP_pressure;BME280_temperature;BME280_humidity;BME280_pressure;Samples;Min_cycle;Max_cycle;Signal;HPM_P1;HPM_P2
2024/03/17 00:00:46;;;;;;;4.57;1.33;;;;;;;3.10;100.00;99086.56;15297794;19;20021;-70
2024/03/17 00:06:12;;;;;;;2.53;1.20;;;;;;;3.02;100.00;99093.22;15283791;19;20357;-71
2024/03/17 00:11:36;;;;;;;3.00;1.10;;;;;;;2.95;100.00;99097.22;15294286;19;20017;-71
2024/03/17 00:17:00;;;;;;;3.05;1.27;;;;;;;2.87;100.00;99110.16;15288935;19;20496;-71
2024/03/17 00:22:27;;;;;;;3.83;1.20;;;;;;;2.75;100.00;99107.31;15318871;19;20038;-72
2024/03/17 00:27:55;;;;;;;5.38;1.30;;;;;;;2.70;100.00;99097.91;15287312;19;20022;-71
2024/03/17 00:33:19;;;;;;;2.47;1.27;;;;;;;2.66;100.00;99118.50;15295956;19;20010;-71
2024/03/17 00:38:45;;;;;;;3.17;1.10;;;;;;;2.65;100.00;99110.63;15285293;19;20017;-71
2024/03/17 00:44:09;;;;;;;2.95;1.33;;;;;;;2.58;100.00;99113.69;15287124;19;20350;-71
2024/03/17 00:49:33;;;;;;;2.95;1.10;;;;;;;2.56;100.00;99110.25;15283261;19;20094;-70
2024/03/17 00:55:00;;;;;;;2.22;1.20;;;;;;;2.50;100.00;99107.09;15283707;19;20010;-71
2024/03/17 01:00:24;;;;;;;2.83;1.10;;;;;;;2.43;100.00;99118.09;15286153;19;20018;-71
2024/03/17 01:05:52;;;;;;;3.05;1.20;;;;;;;2.33;100.00;99108.13;15277927;19;20030;-72
2024/03/17 01:11:24;;;;;;;2.38;1.30;;;;;;;2.25;100.00;99108.56;15288807;19;20015;-71
2024/03/17 01:16:48;;;;;;;3.58;1.42;;;;;;;2.19;100.00;99111.59;15281102;19;20404;-72
2024/03/17 01:22:11;;;;;;;3.20;1.35;;;;;;;2.13;100.00;99112.81;15284299;19;20014;-71
2024/03/17 01:27:38;;;;;;;3.40;1.38;;;;;;;2.11;100.00;99109.41;15281333;19;20024;-72
2024/03/17 01:33:01;;;;;;;5.40;1.30;;;;;;;2.08;100.00;99109.56;15285354;19;20014;-71
2024/03/17 01:38:25;;;;;;;3.72;1.45;;;;;;;2.02;100.00;99112.59;15276771;19;20483;-72
2024/03/17 01:43:52;;;;;;;2.40;1.15;;;;;;;1.94;100.00;99102.44;15280249;19;20078;-72
2024/03/17 01:49:16;;;;;;;2.95;1.35;;;;;;;1.92;100.00;99101.66;15281834;19;20022;-72
2024/03/17 01:54:38;;;;;;;2.83;1.58;;;;;;;1.92;100.00;99109.63;15281688;19;20021;-72
2024/03/17 02:00:08;;;;;;;5.15;1.33;;;;;;;1.91;100.00;99113.22;15300620;19;20477;-72
2024/03/17 02:05:33;;;;;;;4.22;1.50;;;;;;;1.89;100.00;99107.13;15295716;19;20020;-71
2024/03/17 02:10:58;;;;;;;3.47;1.30;;;;;;;1.89;100.00;99107.13;15301048;19;20021;-71
2024/03/17 02:16:25;;;;;;;3.58;1.38;;;;;;;1.84;100.00;99110.91;15291255;19;20011;-71
2024/03/17 02:21:48;;;;;;;2.40;1.20;;;;;;;1.80;100.00;99101.41;15300890;19;20029;-71
2024/03/17 02:27:15;;;;;;;3.13;1.27;;;;;;;1.76;100.00;99102.53;15295255;19;20326;-72
2024/03/17 02:32:39;;;;;;;7.03;1.40;;;;;;;1.73;100.00;99107.19;15300924;19;20066;-71
2024/03/17 02:38:03;;;;;;;3.15;1.40;;;;;;;1.69;100.00;99103.84;15287827;19;20034;-71
2024/03/17 02:43:29;;;;;;;3.25;1.30;;;;;;;1.64;100.00;99093.50;15300369;19;20095;-71
2024/03/17 02:48:55;;;;;;;6.72;1.58;;;;;;;1.64;100.00;99087.31;15293032;19;20026;-71
2024/03/17 02:54:19;;;;;;;3.63;1.35;;;;;;;1.60;100.00;99091.06;15034365;19;5001873;-71
2024/03/17 02:59:46;;;;;;;3.08;1.52;;;;;;;1.57;100.00;99089.44;15294960;19;20014;-70
2024/03/17 03:05:10;;;;;;;3.95;1.60;;;;;;;1.54;100.00;99086.97;15289299;19;20010;-71
2024/03/17 03:10:35;;;;;;;3.60;1.40;;;;;;;1.54;100.00;99092.28;15297323;19;20011;-70
2024/03/17 03:16:02;;;;;;;6.60;1.83;;;;;;;1.52;100.00;99084.41;15287646;19;20010;-71
2024/03/17 03:21:26;;;;;;;2.50;1.40;;;;;;;1.52;100.00;99092.38;15297624;19;20030;-71
2024/03/17 03:26:49;;;;;;;5.32;1.55;;;;;;;1.60;100.00;99091.94;15292158;19;20082;-71
2024/03/17 03:32:17;;;;;;;3.47;1.30;;;;;;;1.66;100.00;99096.03;15297230;19;20024;-71
2024/03/17 03:37:41;;;;;;;4.60;1.60;;;;;;;1.73;100.00;99086.75;15283919;19;20013;-71
2024/03/17 03:43:05;;;;;;;4.90;1.70;;;;;;;1.78;100.00;99100.66;15297811;19;20020;-70
2024/03/17 03:48:39;;;;;;;4.10;1.40;;;;;;;1.84;100.00;99097.63;15289157;19;20021;-71
2024/03/17 03:54:06;;;;;;;3.90;1.30;;;;;;;1.91;100.00;99089.31;15286155;19;20536;-72
2024/03/17 03:59:30;;;;;;;5.85;1.65;;;;;;;1.95;100.00;99096.13;15290703;19;20011;-69
2024/03/17 04:10:33;;;;;;;3.88;1.40;;;;;;;2.00;100.00;99084.28;15288099;19;20014;-70
2024/03/17 04:15:56;;;;;;;4.03;1.25;;;;;;;2.04;100.00;99095.63;15284516;19;20017;-71
2024/03/17 04:21:23;;;;;;;4.20;1.50;;;;;;;2.04;100.00;99100.94;15292433;19;20021;-71
2024/03/17 04:26:48;;;;;;;4.50;1.42;;;;;;;2.04;100.00;99103.59;15288130;19;20053;-72
2024/03/17 04:32:14;;;;;;;4.25;1.40;;;;;;;2.04;100.00;99106.25;15294344;19;20028;-70
2024/03/17 04:37:41;;;;;;;3.30;1.40;;;;;;;2.03;100.00;99101.00;15287047;19;20025;-72
2024/03/17 04:43:05;;;;;;;4.35;1.42;;;;;;;1.99;100.00;99109.19;15316361;19;20477;-73
2024/03/17 04:48:28;;;;;;;3.22;1.40;;;;;;;1.95;100.00;99107.63;15291907;19;20358;-74
2024/03/17 04:53:55;;;;;;;3.72;1.45;;;;;;;1.96;100.00;99113.78;15288967;19;20007;-73
2024/03/17 04:59:20;;;;;;;2.90;1.40;;;;;;;1.98;100.00;99114.56;15285247;19;20029;-74
2024/03/17 05:04:43;;;;;;;2.30;1.20;;;;;;;2.02;100.00;99128.53;15284731;19;20014;-74
2024/03/17 05:10:10;;;;;;;4.55;1.60;;;;;;;2.01;100.00;99119.72;15287306;19;20728;-74
2024/03/17 05:15:33;;;;;;;1.80;1.20;;;;;;;2.02;100.00;99118.78;15280066;19;20015;-73
2024/03/17 05:21:03;;;;;;;3.58;1.52;;;;;;;2.07;100.00;99132.63;15032596;19;5001723;-74
2024/03/17 05:26:30;;;;;;;3.25;1.38;;;;;;;2.09;100.00;99136.06;15285396;19;20537;-74
2024/03/17 05:31:54;;;;;;;4.28;1.73;;;;;;;2.10;100.00;99137.78;15289110;19;20038;-74
2024/03/17 05:37:18;;;;;;;3.80;1.50;;;;;;;2.11;100.00;99152.78;15286696;19;20018;-74
2024/03/17 05:42:47;;;;;;;4.25;1.55;;;;;;;2.14;100.00;99159.72;15289155;19;20017;-73
2024/03/17 05:48:11;;;;;;;2.88;1.33;;;;;;;2.17;100.00;99161.34;15280118;19;20011;-74
2024/03/17 05:53:39;;;;;;;3.15;1.40;;;;;;;2.17;100.00;99170.16;15294334;19;20029;-81
2024/03/17 06:05:12;;;;;;;2.58;1.30;;;;;;;2.26;100.00;99168.78;15285573;19;20014;-81
2024/03/17 06:16:43;;;;;;;2.58;1.58;;;;;;;2.36;100.00;99169.94;15292944;19;20010;-82
2024/03/17 06:28:49;;;;;;;3.92;1.60;;;;;;;2.55;100.00;99179.47;15294877;19;20011;-85
2024/03/17 06:34:17;;;;;;;5.15;1.70;;;;;;;2.66;100.00;99181.50;15298232;19;20380;-83
2024/03/17 06:39:42;;;;;;;2.97;1.38;;;;;;;2.76;100.00;99188.84;15297529;19;20017;-82
2024/03/17 06:45:05;;;;;;;3.33;1.50;;;;;;;2.88;100.00;99186.41;15296043;19;20010;-83
2024/03/17 06:50:32;;;;;;;3.17;1.48;;;;;;;2.99;100.00;99189.25;15303137;19;20021;-82
2024/03/17 06:56:02;;;;;;;3.60;1.42;;;;;;;3.10;100.00;99196.56;15046280;19;5000827;-81
2024/03/17 07:07:30;;;;;;;2.75;1.40;;;;;;;3.35;100.00;99203.03;15303940;19;20359;-82
2024/03/17 07:12:54;;;;;;;2.00;1.17;;;;;;;3.47;100.00;99198.78;15304436;19;20070;-82
2024/03/17 07:18:18;;;;;;;3.70;1.25;;;;;;;3.61;100.00;99189.88;15301744;19;20035;-82
2024/03/17 07:23:46;;;;;;;2.70;1.33;;;;;;;3.77;100.00;99200.41;15306853;19;20386;-83
2024/03/17 07:29:10;;;;;;;3.90;1.30;;;;;;;3.88;100.00;99203.25;15304395;19;20095;-82
2024/03/17 07:34:35;;;;;;;2.88;1.50;;;;;;;4.00;100.00;99201.56;15304436;19;20018;-81
2024/03/17 07:40:02;;;;;;;3.15;1.60;;;;;;;4.13;100.00;99213.16;15300016;19;20021;-82
2024/03/17 07:45:26;;;;;;;3.03;1.20;;;;;;;4.29;100.00;99207.66;15299545;19;20025;-80
2024/03/17 07:51:03;;;;;;;2.03;1.27;;;;;;;4.46;100.00;99200.34;15302791;19;20022;-81
2024/03/17 07:56:32;;;;;;;3.55;1.30;;;;;;;4.68;100.00;99204.22;15303406;19;20011;-82
2024/03/17 08:01:57;;;;;;;2.38;1.15;;;;;;;4.89;100.00;99209.91;15336730;19;20721;-81
2024/03/17 08:07:20;;;;;;;4.60;1.35;;;;;;;5.05;100.00;99204.38;15302698;19;20118;-81
2024/03/17 08:12:47;;;;;;;3.00;1.20;;;;;;;5.26;100.00;99210.03;15302545;19;20021;-82
2024/03/17 08:18:11;;;;;;;2.85;1.15;;;;;;;5.46;100.00;99195.28;15296009;19;20018;-81
2024/03/17 08:23:41;;;;;;;2.38;1.10;;;;;;;5.62;100.00;99187.00;15301354;19;20035;-81
2024/03/17 08:29:08;;;;;;;3.15;1.08;;;;;;;5.77;100.00;99185.03;15293053;19;20529;-80
2024/03/17 08:34:32;;;;;;;3.05;1.45;;;;;;;5.83;100.00;99183.72;15293785;19;20007;-82
2024/03/17 08:39:56;;;;;;;4.18;1.50;;;;;;;5.87;100.00;99187.91;15291611;19;20026;-81
2024/03/17 08:45:23;;;;;;;3.92;1.50;;;;;;;5.96;100.00;99189.88;15289326;19;20074;-80
2024/03/17 08:50:53;;;;;;;3.92;1.55;;;;;;;6.15;100.00;99178.72;15289683;19;20489;-81
2024/03/17 08:56:17;;;;;;;5.17;2.00;;;;;;;6.28;100.00;99178.63;15331266;19;20022;-81
2024/03/17 09:01:44;;;;;;;2.75;1.40;;;;;;;6.47;100.00;99171.88;15317370;19;20284;-83
2024/03/17 09:07:08;;;;;;;3.60;1.25;;;;;;;6.70;100.00;99155.91;15287285;19;20477;-82
2024/03/17 09:12:31;;;;;;;2.42;1.00;;;;;;;6.84;100.00;99147.63;15297751;19;20023;-80
2024/03/17 09:17:58;;;;;;;3.53;1.10;;;;;;;6.95;100.00;99138.75;15290210;19;20018;-84
2024/03/17 09:23:29;;;;;;;3.20;1.20;;;;;;;7.07;100.00;99127.09;15301094;19;20018;-82
2024/03/17 09:28:53;;;;;;;3.22;1.25;;;;;;;7.06;100.00;99129.88;15299966;19;20077;-85
2024/03/17 09:34:19;;;;;;;2.63;1.10;;;;;;;7.09;100.00;99119.78;15292159;19;20611;-75
2024/03/17 09:39:43;;;;;;;4.30;1.33;;;;;;;7.28;100.00;99112.09;15289723;19;20055;-74
2024/03/17 09:45:11;;;;;;;2.40;1.25;;;;;;;7.32;100.00;99111.72;15285186;19;20010;-71
2024/03/17 09:50:39;;;;;;;6.20;1.40;;;;;;;7.33;100.00;99116.13;15285537;19;20794;-73
2024/03/17 09:56:08;;;;;;;3.85;1.40;;;;;;;7.40;100.00;99101.22;15286623;19;20015;-77
2024/03/17 10:01:32;;;;;;;2.38;1.30;;;;;;;7.55;100.00;99092.91;15286791;19;20042;-75
2024/03/17 10:06:58;;;;;;;3.13;1.30;;;;;;;7.73;100.00;99095.94;15278841;19;20018;-76
2024/03/17 10:12:37;;;;;;;2.58;1.30;;;;;;;7.72;100.00;99088.84;15286315;19;20070;-75
2024/03/17 10:18:00;;;;;;;2.95;1.38;;;;;;;7.69;100.00;99084.59;15282127;19;20028;-82
2024/03/17 10:23:28;;;;;;;4.72;1.50;;;;;;;7.74;100.00;99077.97;15289642;19;20030;-79
2024/03/17 10:28:52;;;;;;;1.73;1.25;;;;;;;7.80;100.00;99072.13;15292891;19;20010;-80
2024/03/17 10:34:25;;;;;;;1.90;1.30;;;;;;;7.93;100.00;99075.50;15286686;19;20014;-80
2024/03/17 10:39:55;;;;;;;4.32;1.60;;;;;;;7.97;100.00;99060.81;15287309;19;20033;-82
2024/03/17 10:45:19;;;;;;;3.25;1.60;;;;;;;7.97;100.00;99060.81;15290609;19;20011;-80
2024/03/17 10:50:52;;;;;;;3.78;1.67;;;;;;;7.97;100.00;99050.09;15298425;19;20018;-77
2024/03/17 10:56:22;;;;;;;3.72;1.45;;;;;;;8.07;100.00;99049.31;15302839;19;20014;-77
2024/03/17 11:01:48;;;;;;;3.22;1.33;;;;;;;8.15;100.00;99038.78;15305215;19;20060;-81
2024/03/17 11:07:13;;;;;;;3.83;1.55;;;;;;;8.38;100.00;99046.72;15302144;19;20027;-83
2024/03/17 11:12:48;;;;;;;2.42;1.35;;;;;;;8.60;100.00;99033.16;15333139;19;20013;-83
2024/03/17 11:18:38;;;;;;;3.75;1.42;;;;;;;8.70;100.00;99025.13;15311234;19;20457;-83
2024/03/17 11:24:05;;;;;;;2.22;1.23;;;;;;;8.75;100.00;99024.75;15289279;19;20114;-82
2024/03/17 11:29:39;;;;;;;3.30;1.42;;;;;;;8.91;100.00;99026.94;15294343;19;21202;-81
2024/03/17 11:35:16;;;;;;;2.63;1.23;;;;;;;8.97;100.00;99015.63;15285956;19;20087;-79
2024/03/17 11:40:40;;;;;;;4.80;1.30;;;;;;;9.01;100.00;99024.25;15283743;19;20025;-81
2024/03/17 11:46:09;;;;;;;2.67;1.27;;;;;;;9.18;100.00;99026.31;15279683;19;20074;-79
2024/03/17 11:51:43;;;;;;;3.63;1.40;;;;;;;9.26;100.00;99017.56;15295121;19;20074;-79
2024/03/17 11:57:08;;;;;;;2.13;1.40;;;;;;;9.52;100.00;99003.59;15289794;19;20014;-78
2024/03/17 12:02:36;;;;;;;1.65;1.20;;;;;;;9.72;100.00;98985.59;15286750;19;20017;-81
2024/03/17 12:07:59;;;;;;;3.00;1.33;;;;;;;9.78;100.00;98976.97;15286247;19;20014;-80
2024/03/17 12:13:23;;;;;;;3.08;1.30;;;;;;;9.74;100.00;98974.72;15281038;19;20014;-80
2024/03/17 12:18:53;;;;;;;2.40;1.27;;;;;;;9.71;100.00;98970.44;15281545;19;20317;-80
2024/03/17 12:24:24;;;;;;;4.07;1.50;;;;;;;9.69;100.00;98975.97;15288774;19;20098;-80
2024/03/17 12:29:49;;;;;;;5.03;1.60;;;;;;;9.78;100.00;98971.59;15286984;19;20500;-81
2024/03/17 12:35:22;;;;;;;3.42;1.40;;;;;;;9.95;100.00;98967.31;15285324;19;20035;-80
2024/03/17 12:40:46;;;;;;;2.58;1.35;;;;;;;10.15;100.00;98951.13;15287726;19;20006;-83
2024/03/17 13:54:24;;;;;;;3.15;1.63;;;;;;;12.30;100.00;98916.44;15307137;19;20014;-92
2024/03/17 13:59:57;;;;;;;2.50;1.45;;;;;;;12.34;100.00;98908.88;15334821;19;20006;-93
2024/03/17 14:11:16;;;;;;;3.80;1.50;;;;;;;12.87;100.00;98887.97;15380520;19;20025;-89
2024/03/17 14:16:44;;;;;;;1.95;1.30;;;;;;;13.11;100.00;98880.94;15335880;19;20014;-89
2024/03/17 14:33:59;;;;;;;4.13;1.50;;;;;;;13.54;100.00;98865.44;15317731;19;20015;-89
2024/03/17 14:45:38;;;;;;;2.97;1.50;;;;;;;14.27;100.00;98848.38;15311681;19;20479;-91
2024/03/17 14:51:10;;;;;;;2.53;1.40;;;;;;;14.49;100.00;98850.31;15337410;19;20007;-81
2024/03/17 14:56:34;;;;;;;3.22;1.48;;;;;;;14.47;100.00;98846.94;15297739;19;20052;-82
2024/03/17 15:02:00;;;;;;;3.65;1.50;;;;;;;14.27;100.00;98834.81;15280409;19;20030;-81
2024/03/17 15:07:25;;;;;;;2.35;1.40;;;;;;;14.12;100.00;98840.97;15289383;19;20017;-82
2024/03/17 15:12:51;;;;;;;3.00;1.52;;;;;;;13.85;100.00;98834.94;15298335;19;20032;-83
2024/03/17 15:18:15;;;;;;;3.13;1.67;;;;;;;13.54;100.00;98838.38;15293528;19;20031;-85
2024/03/17 15:23:41;;;;;;;2.03;1.33;;;;;;;13.21;100.00;98838.34;15287019;19;20045;-81
2024/03/17 15:29:05;;;;;;;3.60;1.80;;;;;;;12.95;100.00;98841.16;15025701;19;5002270;-81
2024/03/17 15:34:33;;;;;;;2.97;1.67;;;;;;;12.66;100.00;98849.69;15282793;19;20381;-80
2024/03/17 15:39:59;;;;;;;2.10;1.35;;;;;;;12.26;100.00;98844.84;15286078;19;20081;-82
2024/03/17 15:45:25;;;;;;;2.95;1.60;;;;;;;12.00;100.00;98844.84;15289089;19;20021;-84
2024/03/17 15:50:59;;;;;;;3.78;1.70;;;;;;;11.71;100.00;98837.91;15288883;19;20353;-81
2024/03/17 15:56:23;;;;;;;2.90;1.70;;;;;;;11.65;100.00;98838.53;15289253;19;20038;-79
2024/03/17 16:01:48;;;;;;;4.43;1.70;;;;;;;11.59;100.00;98831.91;15278605;19;20011;-83
2024/03/17 16:07:14;;;;;;;4.13;1.80;;;;;;;11.47;100.00;98838.56;15286384;19;20029;-81
2024/03/17 16:12:38;;;;;;;4.32;1.70;;;;;;;11.36;100.00;98832.41;15283096;19;20046;-79
2024/03/17 16:18:01;;;;;;;4.20;2.00;;;;;;;11.27;100.00;98830.66;15282062;19;20018;-79
2024/03/17 16:23:29;;;;;;;3.22;1.73;;;;;;;11.09;100.00;98826.16;15284911;19;20018;-82
2024/03/17 16:28:54;;;;;;;4.22;1.90;;;;;;;10.93;100.00;98823.28;15287421;19;20041;-79
2024/03/17 16:34:20;;;;;;;2.50;1.73;;;;;;;10.60;100.00;98822.94;15280908;19;20101;-81
2024/03/17 16:39:47;;;;;;;3.00;1.90;;;;;;;10.35;100.00;98828.03;15289101;19;20002;-81
2024/03/17 16:45:13;;;;;;;3.30;2.13;;;;;;;10.11;100.00;98815.13;15285446;19;20078;-81
2024/03/17 16:50:43;;;;;;;5.25;2.08;;;;;;;9.86;100.00;98810.22;15282241;19;20536;-82
2024/03/17 16:56:09;;;;;;;2.63;2.00;;;;;;;9.63;100.00;98811.56;15275701;19;20018;-78
2024/03/17 17:01:36;;;;;;;4.85;2.03;;;;;;;9.41;100.00;98810.94;15258256;19;20017;-80
2024/03/17 17:07:01;;;;;;;3.47;2.10;;;;;;;9.15;100.00;98814.19;15280882;19;20026;-80
2024/03/17 17:12:27;;;;;;;3.45;2.20;;;;;;;8.91;100.00;98812.78;15288875;19;20026;-80
2024/03/17 17:17:54;;;;;;;6.30;2.78;;;;;;;8.69;100.00;98811.25;15299238;19;20050;-80
2024/03/17 17:23:18;;;;;;;4.82;3.00;;;;;;;8.52;100.00;98802.03;15338843;19;20014;-79
2024/03/17 17:28:46;;;;;;;4.68;2.60;;;;;;;8.33;100.00;98810.84;15290629;19;20019;-82
2024/03/17 17:34:10;;;;;;;3.63;2.80;;;;;;;8.18;100.00;98811.22;15282060;19;20021;-80
2024/03/17 17:39:35;;;;;;;3.58;2.70;;;;;;;8.00;100.00;98808.34;15276572;19;20481;-81
2024/03/17 17:45:02;;;;;;;4.55;2.63;;;;;;;7.86;100.00;98809.56;15279997;19;21411;-82
2024/03/17 17:50:34;;;;;;;4.68;2.60;;;;;;;7.72;100.00;98813.44;15277905;19;20014;-81
2024/03/17 17:55:59;;;;;;;4.32;2.70;;;;;;;7.60;100.00;98824.38;15276720;19;20025;-81
2024/03/17 18:01:27;;;;;;;4.53;2.50;;;;;;;7.42;100.00;98818.78;15274714;19;20369;-80
2024/03/17 18:06:51;;;;;;;4.70;2.60;;;;;;;7.34;100.00;98814.94;15283211;19;20342;-81
2024/03/17 18:12:15;;;;;;;5.18;2.80;;;;;;;7.29;100.00;98819.81;15279031;19;20018;-80
2024/03/17 18:17:42;;;;;;;3.60;2.80;;;;;;;7.24;100.00;98822.88;15284475;19;20564;-72
2024/03/17 18:23:06;;;;;;;4.70;3.05;;;;;;;7.22;100.00;98832.06;15259485;19;20050;-75
2024/03/17 18:28:31;;;;;;;6.57;3.60;;;;;;;7.16;100.00;98821.84;15252286;19;20037;-72
2024/03/17 18:33:58;;;;;;;5.63;3.50;;;;;;;7.07;100.00;98824.31;15243255;19;20029;-73
2024/03/17 18:39:26;;;;;;;5.40;3.20;;;;;;;6.95;100.00;98825.34;15261243;19;20031;-80
2024/03/17 18:45:01;;;;;;;4.32;3.30;;;;;;;6.84;100.00;98817.34;15296228;19;20018;-78
2024/03/17 18:50:35;;;;;;;6.40;3.70;;;;;;;6.74;100.00;98828.84;15304658;19;20090;-79
2024/03/17 18:56:01;;;;;;;4.53;3.22;;;;;;;6.64;100.00;98819.88;15297657;19;20019;-77
2024/03/17 19:01:25;;;;;;;5.05;3.40;;;;;;;6.54;100.00;98829.59;15306349;19;20003;-77
2024/03/17 19:06:51;;;;;;;5.18;3.38;;;;;;;6.47;100.00;98826.56;15297971;19;20007;-75
2024/03/17 19:12:16;;;;;;;5.43;3.42;;;;;;;6.40;100.00;98826.25;15325207;19;20014;-75
2024/03/17 19:17:40;;;;;;;6.63;3.60;;;;;;;6.32;100.00;98820.66;15324852;19;20018;-76
2024/03/17 19:23:06;;;;;;;5.95;3.53;;;;;;;6.24;100.00;98818.59;15299411;19;20018;-74
2024/03/17 19:28:30;;;;;;;5.93;4.03;;;;;;;6.15;100.00;98819.34;15293692;19;20354;-74
2024/03/17 19:33:53;;;;;;;5.93;4.07;;;;;;;6.11;100.00;98832.13;15292187;19;20502;-74
2024/03/17 19:39:20;;;;;;;6.43;4.07;;;;;;;6.04;100.00;98824.69;15291353;19;20021;-75
2024/03/17 19:44:44;;;;;;;6.18;4.00;;;;;;;5.98;100.00;98828.69;15285195;19;20015;-76
2024/03/17 19:50:16;;;;;;;6.00;4.20;;;;;;;5.83;100.00;98831.59;15290546;19;20066;-77
2024/03/17 19:56:04;;;;;;;5.70;3.97;;;;;;;5.70;100.00;98826.38;15300721;19;20014;-77
2024/03/17 20:01:32;;;;;;;6.55;4.15;;;;;;;5.66;100.00;98830.25;15293882;19;20830;-71
2024/03/17 20:06:58;;;;;;;7.10;4.20;;;;;;;5.62;100.00;98831.47;15285484;19;20018;-71
2024/03/17 20:12:25;;;;;;;5.72;4.30;;;;;;;5.60;100.00;98832.53;15294469;19;20363;-71
2024/03/17 20:17:49;;;;;;;6.45;4.35;;;;;;;5.53;100.00;98822.34;15284352;19;20022;-70
2024/03/17 20:23:13;;;;;;;7.60;4.22;;;;;;;5.49;100.00;98817.34;15293488;19;20011;-71
2024/03/17 20:28:39;;;;;;;5.05;3.80;;;;;;;5.45;100.00;98816.75;15289029;19;20019;-72
2024/03/17 20:34:03;;;;;;;4.55;3.70;;;;;;;5.44;100.00;98815.03;15284213;19;20085;-71
2024/03/17 20:39:30;;;;;;;5.03;4.07;;;;;;;5.41;100.00;98812.59;15288452;19;20211;-72
2024/03/17 20:44:57;;;;;;;7.00;3.95;;;;;;;5.38;100.00;98807.50;15285423;19;20022;-71
2024/03/17 20:50:22;;;;;;;5.28;4.10;;;;;;;5.32;100.00;98798.13;15285025;19;20484;-72
2024/03/17 20:55:47;;;;;;;5.57;4.40;;;;;;;5.24;100.00;98796.03;15288704;19;20015;-73
2024/03/17 21:01:16;;;;;;;6.80;4.85;;;;;;;5.20;100.00;98801.75;15293042;19;20014;-73
2024/03/17 21:06:39;;;;;;;7.25;4.47;;;;;;;5.15;100.00;98806.59;15284759;19;20011;-73
2024/03/17 21:12:03;;;;;;;6.32;4.22;;;;;;;5.09;100.00;98789.22;15289256;19;20789;-73
2024/03/17 21:17:29;;;;;;;5.70;4.10;;;;;;;5.05;100.00;98795.75;15283530;19;20011;-73
2024/03/17 21:22:57;;;;;;;5.40;4.25;;;;;;;4.99;100.00;98793.56;15285110;19;20033;-75
2024/03/17 21:28:20;;;;;;;6.53;4.20;;;;;;;4.94;100.00;98792.09;15284839;19;20014;-73
2024/03/17 21:33:47;;;;;;;6.05;3.78;;;;;;;4.89;100.00;98783.56;15298034;19;20046;-73
2024/03/17 21:39:11;;;;;;;6.40;4.00;;;;;;;4.83;100.00;98784.03;15314784;19;20018;-73
2024/03/17 21:44:36;;;;;;;5.20;3.95;;;;;;;4.79;100.00;98779.88;15286523;19;20022;-73
2024/03/17 21:50:10;;;;;;;5.72;3.72;;;;;;;4.74;100.00;98782.06;15280173;19;20026;-73
2024/03/17 21:55:34;;;;;;;5.13;3.65;;;;;;;4.69;100.00;98770.88;15276526;19;20022;-72
2024/03/17 22:00:57;;;;;;;10.73;4.00;;;;;;;4.61;100.00;98772.31;15284976;19;20011;-72
2024/03/17 22:06:26;;;;;;;6.07;3.72;;;;;;;4.58;100.00;98769.03;15276597;19;20014;-72
2024/03/17 22:11:49;;;;;;;5.03;3.53;;;;;;;4.53;100.00;98766.69;15285812;19;20365;-71
2024/03/17 22:17:13;;;;;;;6.07;3.65;;;;;;;4.42;100.00;98759.50;15295421;19;20041;-72
2024/03/17 22:22:39;;;;;;;5.97;3.70;;;;;;;4.36;100.00;98759.09;15300777;19;20018;-71
2024/03/17 22:28:03;;;;;;;7.50;3.60;;;;;;;4.34;100.00;98761.00;15294141;19;20369;-71
2024/03/17 22:33:26;;;;;;;7.03;3.97;;;;;;;4.32;100.00;98761.13;15302569;19;20018;-71
2024/03/17 22:38:52;;;;;;;7.80;3.80;;;;;;;4.32;100.00;98761.97;15302543;19;20014;-72
2024/03/17 22:44:16;;;;;;;8.35;4.22;;;;;;;4.30;100.00;98757.72;15291534;19;20015;-71
2024/03/17 22:49:40;;;;;;;6.82;4.00;;;;;;;4.25;100.00;98760.75;15300603;19;20502;-72
2024/03/17 22:55:06;;;;;;;6.85;4.22;;;;;;;4.26;100.00;98753.56;15285851;19;20493;-72
2024/03/17 23:00:41;;;;;;;7.40;4.00;;;;;;;4.24;100.00;98751.03;15290651;19;20021;-72
2024/03/17 23:06:07;;;;;;;8.25;4.45;;;;;;;4.23;100.00;98753.81;15287088;19;20015;-72
2024/03/17 23:11:34;;;;;;;7.35;4.07;;;;;;;4.21;100.00;98740.59;15298031;19;20407;-71
2024/03/17 23:16:57;;;;;;;7.60;4.07;;;;;;;4.19;100.00;98742.50;15292446;19;20014;-72
2024/03/17 23:22:22;;;;;;;8.07;4.40;;;;;;;4.15;100.00;98736.56;15297902;19;20023;-71
2024/03/17 23:27:49;;;;;;;7.07;4.20;;;;;;;4.11;100.00;98732.44;15291127;19;20415;-72
2024/03/17 23:33:15;;;;;;;6.93;4.22;;;;;;;4.11;100.00;98726.22;15294978;19;20019;-71
2024/03/17 23:38:38;;;;;;;6.65;3.90;;;;;;;4.09;100.00;98722.81;15294669;19;20024;-71
2024/03/17 23:44:04;;;;;;;7.40;4.05;;;;;;;4.07;100.00;98724.75;15292678;19;20015;-72
2024/03/17 23:49:35;;;;;;;8.88;4.68;;;;;;;4.01;100.00;98713.56;15297763;19;20549;-71
2024/03/17 23:54:59;;;;;;;7.30;4.20;;;;;;;3.98;100.00;98712.97;15287086;19;20010;-71
